sensor_id;sensor_type;location;lat;lon;timestamp;P1;durP1;ratioP1;P2;durP2;ratioP2
63012;SDS011;62113;45.624;11.700;2023-07-09T00:00:48;10.98;;;8.52;;
63012;SDS011;62113;45.624;11.700;2023-07-09T00:03:14;11.52;;;8.18;;
63012;SDS011;62113;45.624;11.700;2023-07-09T00:05:40;17.50;;;8.45;;
63012;SDS011;62113;45.624;11.700;2023-07-09T00:08:12;15.70;;;9.40;;
63012;SDS011;62113;45.624;11.700;2023-07-09T00:11:09;13.68;;;8.27;;
63012;SDS011;62113;45.624;11.700;2023-07-09T00:13:35;11.27;;;8.13;;
63012;SDS011;62113;45.624;11.700;2023-07-09T00:16:01;13.30;;;8.52;;
63012;SDS011;62113;45.624;11.700;2023-07-09T00:18:32;14.15;;;7.82;;
63012;SDS011;62113;45.624;11.700;2023-07-09T00:20:59;12.98;;;7.95;;
63012;SDS011;62113;45.624;11.700;2023-07-09T00:23:26;9.52;;;7.97;;
63012;SDS011;62113;45.624;11.700;2023-07-09T00:25:52;18.65;;;8.68;;
63012;SDS011;62113;45.624;11.700;2023-07-09T00:28:18;10.80;;;7.97;;
63012;SDS011;62113;45.624;11.700;2023-07-09T00:30:45;12.48;;;8.18;;
63012;SDS011;62113;45.624;11.700;2023-07-09T00:33:12;14.98;;;8.75;;
63012;SDS011;62113;45.624;11.700;2023-07-09T00:35:42;11.98;;;8.70;;
63012;SDS011;62113;45.624;11.700;2023-07-09T00:38:15;13.02;;;8.95;;
63012;SDS011;62113;45.624;11.700;2023-07-09T00:43:30;11.88;;;8.57;;
63012;SDS011;62113;45.624;11.700;2023-07-09T00:48:40;9.85;;;7.88;;
63012;SDS011;62113;45.624;11.700;2023-07-09T00:51:14;12.30;;;8.13;;
63012;SDS011;62113;45.624;11.700;2023-07-09T00:53:43;12.32;;;8.63;;
63012;SDS011;62113;45.624;11.700;2023-07-09T00:56:12;15.65;;;9.05;;
63012;SDS011;62113;45.624;11.700;2023-07-09T00:58:40;14.10;;;9.05;;
63012;SDS011;62113;45.624;11.700;2023-07-09T01:01:09;12.35;;;8.38;;
63012;SDS011;62113;45.624;11.700;2023-07-09T01:06:18;11.48;;;8.55;;
63012;SDS011;62113;45.624;11.700;2023-07-09T01:08:50;10.30;;;8.55;;
63012;SDS011;62113;45.624;11.700;2023-07-09T01:11:19;12.88;;;7.88;;
63012;SDS011;62113;45.624;11.700;2023-07-09T01:13:49;20.10;;;8.23;;
63012;SDS011;62113;45.624;11.700;2023-07-09T01:16:18;12.05;;;8.23;;
63012;SDS011;62113;45.624;11.700;2023-07-09T01:18:48;15.20;;;7.85;;
63012;SDS011;62113;45.624;11.700;2023-07-09T01:21:17;13.30;;;7.57;;
63012;SDS011;62113;45.624;11.700;2023-07-09T01:23:45;12.25;;;8.65;;
63012;SDS011;62113;45.624;11.700;2023-07-09T01:26:16;9.73;;;8.30;;
63012;SDS011;62113;45.624;11.700;2023-07-09T01:28:43;15.98;;;8.63;;
63012;SDS011;62113;45.624;11.700;2023-07-09T01:31:10;11.05;;;8.80;;
63012;SDS011;62113;45.624;11.700;2023-07-09T01:33:37;9.75;;;7.88;;
63012;SDS011;62113;45.624;11.700;2023-07-09T01:36:05;10.57;;;8.35;;
63012;SDS011;62113;45.624;11.700;2023-07-09T01:38:31;16.65;;;8.57;;
63012;SDS011;62113;45.624;11.700;2023-07-09T01:40:58;12.73;;;9.10;;
63012;SDS011;62113;45.624;11.700;2023-07-09T01:43:24;11.63;;;7.80;;
63012;SDS011;62113;45.624;11.700;2023-07-09T01:45:51;12.75;;;8.20;;
63012;SDS011;62113;45.624;11.700;2023-07-09T01:48:18;12.13;;;7.75;;
63012;SDS011;62113;45.624;11.700;2023-07-09T01:50:45;9.85;;;8.02;;
63012;SDS011;62113;45.624;11.700;2023-07-09T01:53:14;9.77;;;8.38;;
63012;SDS011;62113;45.624;11.700;2023-07-09T01:55:42;12.73;;;8.95;;
63012;SDS011;62113;45.624;11.700;2023-07-09T01:58:09;12.95;;;8.90;;
63012;SDS011;62113;45.624;11.700;2023-07-09T02:00:36;10.35;;;7.70;;
63012;SDS011;62113;45.624;11.700;2023-07-09T02:05:30;11.32;;;7.80;;
63012;SDS011;62113;45.624;11.700;2023-07-09T02:07:57;8.88;;;7.70;;
63012;SDS011;62113;45.624;11.700;2023-07-09T02:10:23;15.15;;;8.70;;
63012;SDS011;62113;45.624;11.700;2023-07-09T02:12:49;14.60;;;8.90;;
63012;SDS011;62113;45.624;11.700;2023-07-09T02:15:15;10.90;;;7.97;;
63012;SDS011;62113;45.624;11.700;2023-07-09T02:17:41;16.00;;;8.68;;
63012;SDS011;62113;45.624;11.700;2023-07-09T02:20:07;13.38;;;8.07;;
63012;SDS011;62113;45.624;11.700;2023-07-09T02:22:34;10.05;;;8.25;;
63012;SDS011;62113;45.624;11.700;2023-07-09T02:25:01;12.40;;;8.93;;
63012;SDS011;62113;45.624;11.700;2023-07-09T02:27:27;16.35;;;9.65;;
63012;SDS011;62113;45.624;11.700;2023-07-09T02:29:53;14.80;;;8.30;;
63012;SDS011;62113;45.624;11.700;2023-07-09T02:32:23;12.57;;;8.55;;
63012;SDS011;62113;45.624;11.700;2023-07-09T02:34:51;11.48;;;7.75;;
63012;SDS011;62113;45.624;11.700;2023-07-09T02:37:18;15.65;;;8.65;;
63012;SDS011;62113;45.624;11.700;2023-07-09T02:39:48;9.60;;;7.50;;
63012;SDS011;62113;45.624;11.700;2023-07-09T02:42:15;12.57;;;8.48;;
63012;SDS011;62113;45.624;11.700;2023-07-09T02:44:42;11.63;;;8.07;;
63012;SDS011;62113;45.624;11.700;2023-07-09T02:47:09;11.63;;;8.30;;
63012;SDS011;62113;45.624;11.700;2023-07-09T02:49:36;13.10;;;8.18;;
63012;SDS011;62113;45.624;11.700;2023-07-09T02:52:03;12.65;;;8.00;;
63012;SDS011;62113;45.624;11.700;2023-07-09T02:54:29;10.70;;;7.95;;
63012;SDS011;62113;45.624;11.700;2023-07-09T02:56:55;15.27;;;7.47;;
63012;SDS011;62113;45.624;11.700;2023-07-09T02:59:20;12.68;;;7.95;;
63012;SDS011;62113;45.624;11.700;2023-07-09T03:01:46;13.48;;;8.10;;
63012;SDS011;62113;45.624;11.700;2023-07-09T03:04:12;9.90;;;7.68;;
63012;SDS011;62113;45.624;11.700;2023-07-09T03:06:39;7.88;;;7.00;;
63012;SDS011;62113;45.624;11.700;2023-07-09T03:09:05;12.05;;;7.82;;
63012;SDS011;62113;45.624;11.700;2023-07-09T03:11:33;12.60;;;8.45;;
63012;SDS011;62113;45.624;11.700;2023-07-09T03:14:00;12.02;;;7.07;;
63012;SDS011;62113;45.624;11.700;2023-07-09T03:16:30;12.90;;;8.05;;
63012;SDS011;62113;45.624;11.700;2023-07-09T03:18:57;11.60;;;7.70;;
63012;SDS011;62113;45.624;11.700;2023-07-09T03:21:24;11.10;;;7.30;;
63012;SDS011;62113;45.624;11.700;2023-07-09T03:23:50;12.27;;;8.05;;
63012;SDS011;62113;45.624;11.700;2023-07-09T03:26:17;9.88;;;7.40;;
63012;SDS011;62113;45.624;11.700;2023-07-09T03:28:42;16.42;;;7.50;;
63012;SDS011;62113;45.624;11.700;2023-07-09T03:31:08;11.15;;;7.30;;
63012;SDS011;62113;45.624;11.700;2023-07-09T03:33:34;9.87;;;7.00;;
63012;SDS011;62113;45.624;11.700;2023-07-09T03:35:59;12.97;;;8.03;;
63012;SDS011;62113;45.624;11.700;2023-07-09T03:38:25;13.63;;;7.17;;
63012;SDS011;62113;45.624;11.700;2023-07-09T03:40:51;13.23;;;7.53;;
63012;SDS011;62113;45.624;11.700;2023-07-09T03:43:18;10.05;;;6.75;;
63012;SDS011;62113;45.624;11.700;2023-07-09T03:48:11;10.98;;;6.80;;
63012;SDS011;62113;45.624;11.700;2023-07-09T03:53:03;12.13;;;6.60;;
63012;SDS011;62113;45.624;11.700;2023-07-09T03:55:30;12.88;;;6.70;;
63012;SDS011;62113;45.624;11.700;2023-07-09T03:57:56;8.77;;;6.22;;
63012;SDS011;62113;45.624;11.700;2023-07-09T04:00:22;10.93;;;7.10;;
63012;SDS011;62113;45.624;11.700;2023-07-09T04:02:50;10.32;;;6.63;;
63012;SDS011;62113;45.624;11.700;2023-07-09T04:05:16;12.70;;;7.00;;
63012;SDS011;62113;45.624;11.700;2023-07-09T04:10:08;13.48;;;7.32;;
63012;SDS011;62113;45.624;11.700;2023-07-09T04:12:34;9.35;;;7.22;;
63012;SDS011;62113;45.624;11.700;2023-07-09T04:15:01;8.75;;;6.85;;
63012;SDS011;62113;45.624;11.700;2023-07-09T04:17:31;11.25;;;7.07;;
63012;SDS011;62113;45.624;11.700;2023-07-09T04:19:56;10.52;;;6.57;;
63012;SDS011;62113;45.624;11.700;2023-07-09T04:22:22;8.87;;;7.17;;
63012;SDS011;62113;45.624;11.700;2023-07-09T04:24:48;10.68;;;7.35;;
63012;SDS011;62113;45.624;11.700;2023-07-09T04:27:14;9.57;;;7.22;;
63012;SDS011;62113;45.624;11.700;2023-07-09T04:29:40;12.43;;;7.63;;
63012;SDS011;62113;45.624;11.700;2023-07-09T04:32:06;12.77;;;6.47;;
63012;SDS011;62113;45.624;11.700;2023-07-09T04:34:36;13.48;;;6.53;;
63012;SDS011;62113;45.624;11.700;2023-07-09T04:37:04;11.13;;;7.07;;
63012;SDS011;62113;45.624;11.700;2023-07-09T04:39:34;11.70;;;7.47;;
63012;SDS011;62113;45.624;11.700;2023-07-09T04:42:00;8.90;;;6.87;;
63012;SDS011;62113;45.624;11.700;2023-07-09T04:44:25;10.18;;;6.68;;
63012;SDS011;62113;45.624;11.700;2023-07-09T04:46:51;8.43;;;6.67;;
63012;SDS011;62113;45.624;11.700;2023-07-09T04:49:16;13.90;;;6.63;;
63012;SDS011;62113;45.624;11.700;2023-07-09T04:51:42;12.65;;;6.70;;
63012;SDS011;62113;45.624;11.700;2023-07-09T04:54:08;13.60;;;7.10;;
63012;SDS011;62113;45.624;11.700;2023-07-09T04:56:33;8.68;;;7.13;;
63012;SDS011;62113;45.624;11.700;2023-07-09T04:58:59;14.10;;;6.53;;
63012;SDS011;62113;45.624;11.700;2023-07-09T05:01:25;8.87;;;6.87;;
63012;SDS011;62113;45.624;11.700;2023-07-09T05:03:50;16.80;;;7.07;;
63012;SDS011;62113;45.624;11.700;2023-07-09T05:06:16;12.93;;;6.60;;
63012;SDS011;62113;45.624;11.700;2023-07-09T05:08:42;14.70;;;6.70;;
63012;SDS011;62113;45.624;11.700;2023-07-09T05:11:08;14.35;;;6.82;;
63012;SDS011;62113;45.624;11.700;2023-07-09T05:13:35;12.52;;;6.72;;
63012;SDS011;62113;45.624;11.700;2023-07-09T05:16:01;17.38;;;7.88;;
63012;SDS011;62113;45.624;11.700;2023-07-09T05:18:27;11.82;;;7.43;;
63012;SDS011;62113;45.624;11.700;2023-07-09T05:20:53;10.60;;;6.83;;
63012;SDS011;62113;45.624;11.700;2023-07-09T05:23:20;8.95;;;6.03;;
63012;SDS011;62113;45.624;11.700;2023-07-09T05:25:46;10.07;;;7.07;;
63012;SDS011;62113;45.624;11.700;2023-07-09T05:28:12;13.13;;;7.22;;
63012;SDS011;62113;45.624;11.700;2023-07-09T05:30:40;12.27;;;7.10;;
63012;SDS011;62113;45.624;11.700;2023-07-09T05:33:06;8.18;;;6.65;;
63012;SDS011;62113;45.624;11.700;2023-07-09T05:35:32;10.37;;;7.20;;
63012;SDS011;62113;45.624;11.700;2023-07-09T05:37:58;9.32;;;6.90;;
63012;SDS011;62113;45.624;11.700;2023-07-09T05:40:23;9.03;;;6.10;;
63012;SDS011;62113;45.624;11.700;2023-07-09T05:42:49;10.60;;;7.50;;
63012;SDS011;62113;45.624;11.700;2023-07-09T05:45:15;9.73;;;7.10;;
63012;SDS011;62113;45.624;11.700;2023-07-09T05:47:41;10.77;;;6.90;;
63012;SDS011;62113;45.624;11.700;2023-07-09T05:50:06;10.10;;;7.60;;
63012;SDS011;62113;45.624;11.700;2023-07-09T05:52:32;9.82;;;7.13;;
63012;SDS011;62113;45.624;11.700;2023-07-09T05:54:58;14.80;;;7.50;;
63012;SDS011;62113;45.624;11.700;2023-07-09T05:57:24;9.05;;;7.00;;
63012;SDS011;62113;45.624;11.700;2023-07-09T05:59:50;10.57;;;7.72;;
63012;SDS011;62113;45.624;11.700;2023-07-09T06:02:19;12.40;;;7.88;;
63012;SDS011;62113;45.624;11.700;2023-07-09T06:04:46;10.30;;;6.18;;
63012;SDS011;62113;45.624;11.700;2023-07-09T06:07:14;8.02;;;5.70;;
63012;SDS011;62113;45.624;11.700;2023-07-09T06:09:40;8.23;;;5.80;;
63012;SDS011;62113;45.624;11.700;2023-07-09T06:12:07;8.43;;;5.88;;
63012;SDS011;62113;45.624;11.700;2023-07-09T06:16:59;7.15;;;5.70;;
63012;SDS011;62113;45.624;11.700;2023-07-09T06:21:51;9.27;;;5.65;;
63012;SDS011;62113;45.624;11.700;2023-07-09T06:24:16;6.35;;;4.90;;
63012;SDS011;62113;45.624;11.700;2023-07-09T06:26:42;9.55;;;5.25;;
63012;SDS011;62113;45.624;11.700;2023-07-09T06:29:08;6.78;;;4.88;;
63012;SDS011;62113;45.624;11.700;2023-07-09T06:31:33;10.95;;;5.22;;
63012;SDS011;62113;45.624;11.700;2023-07-09T06:34:01;9.80;;;5.28;;
63012;SDS011;62113;45.624;11.700;2023-07-09T06:36:26;16.02;;;5.28;;
63012;SDS011;62113;45.624;11.700;2023-07-09T06:41:18;6.82;;;5.10;;
63012;SDS011;62113;45.624;11.700;2023-07-09T06:43:43;6.07;;;4.50;;
63012;SDS011;62113;45.624;11.700;2023-07-09T06:46:10;12.63;;;5.20;;
63012;SDS011;62113;45.624;11.700;2023-07-09T06:48:37;7.40;;;4.55;;
63012;SDS011;62113;45.624;11.700;2023-07-09T06:51:03;8.27;;;5.40;;
63012;SDS011;62113;45.624;11.700;2023-07-09T06:53:29;9.57;;;4.90;;
63012;SDS011;62113;45.624;11.700;2023-07-09T06:55:55;5.63;;;3.85;;
63012;SDS011;62113;45.624;11.700;2023-07-09T06:58:24;5.50;;;4.47;;
63012;SDS011;62113;45.624;11.700;2023-07-09T07:00:52;7.55;;;5.47;;
63012;SDS011;62113;45.624;11.700;2023-07-09T07:03:19;7.25;;;5.35;;
63012;SDS011;62113;45.624;11.700;2023-07-09T07:05:45;8.35;;;5.60;;
63012;SDS011;62113;45.624;11.700;2023-07-09T07:08:14;6.13;;;4.75;;
63012;SDS011;62113;45.624;11.700;2023-07-09T07:10:41;6.85;;;4.55;;
63012;SDS011;62113;45.624;11.700;2023-07-09T07:13:07;7.28;;;4.50;;
63012;SDS011;62113;45.624;11.700;2023-07-09T07:15:34;7.10;;;4.45;;
63012;SDS011;62113;45.624;11.700;2023-07-09T07:18:02;6.30;;;4.35;;
63012;SDS011;62113;45.624;11.700;2023-07-09T07:20:28;5.30;;;4.00;;
63012;SDS011;62113;45.624;11.700;2023-07-09T07:22:55;6.05;;;4.47;;
63012;SDS011;62113;45.624;11.700;2023-07-09T07:25:21;5.10;;;4.03;;
63012;SDS011;62113;45.624;11.700;2023-07-09T07:27:47;4.75;;;4.13;;
63012;SDS011;62113;45.624;11.700;2023-07-09T07:30:13;3.90;;;3.60;;
63012;SDS011;62113;45.624;11.700;2023-07-09T07:32:43;9.63;;;4.40;;
63012;SDS011;62113;45.624;11.700;2023-07-09T07:38:31;10.43;;;4.45;;
63012;SDS011;62113;45.624;11.700;2023-07-09T07:41:03;6.18;;;4.28;;
63012;SDS011;62113;45.624;11.700;2023-07-09T07:43:29;5.50;;;3.85;;
63012;SDS011;62113;45.624;11.700;2023-07-09T07:45:54;10.27;;;4.07;;
63012;SDS011;62113;45.624;11.700;2023-07-09T07:48:20;5.10;;;4.18;;
63012;SDS011;62113;45.624;11.700;2023-07-09T07:50:46;4.88;;;4.45;;
63012;SDS011;62113;45.624;11.700;2023-07-09T07:53:13;8.88;;;4.47;;
63012;SDS011;62113;45.624;11.700;2023-07-09T07:55:40;7.13;;;3.85;;
63012;SDS011;62113;45.624;11.700;2023-07-09T07:58:06;8.20;;;4.05;;
63012;SDS011;62113;45.624;11.700;2023-07-09T08:00:34;9.63;;;4.32;;
63012;SDS011;62113;45.624;11.700;2023-07-09T08:03:00;5.47;;;4.18;;
63012;SDS011;62113;45.624;11.700;2023-07-09T08:05:25;4.72;;;4.22;;
63012;SDS011;62113;45.624;11.700;2023-07-09T08:07:52;6.97;;;4.60;;
63012;SDS011;62113;45.624;11.700;2023-07-09T08:10:17;8.80;;;4.43;;
63012;SDS011;62113;45.624;11.700;2023-07-09T08:12:43;5.28;;;3.90;;
63012;SDS011;62113;45.624;11.700;2023-07-09T08:15:09;5.90;;;3.97;;
63012;SDS011;62113;45.624;11.700;2023-07-09T08:17:35;4.88;;;4.07;;
63012;SDS011;62113;45.624;11.700;2023-07-09T08:20:00;8.15;;;4.40;;
63012;SDS011;62113;45.624;11.700;2023-07-09T08:22:26;7.25;;;4.25;;
63012;SDS011;62113;45.624;11.700;2023-07-09T08:24:52;6.07;;;4.10;;
63012;SDS011;62113;45.624;11.700;2023-07-09T08:27:18;5.30;;;3.85;;
63012;SDS011;62113;45.624;11.700;2023-07-09T08:29:44;5.57;;;4.35;;
63012;SDS011;62113;45.624;11.700;2023-07-09T08:32:11;8.43;;;4.50;;
63012;SDS011;62113;45.624;11.700;2023-07-09T08:34:37;9.60;;;4.80;;
63012;SDS011;62113;45.624;11.700;2023-07-09T08:37:06;8.18;;;4.68;;
63012;SDS011;62113;45.624;11.700;2023-07-09T08:39:32;7.05;;;4.80;;
63012;SDS011;62113;45.624;11.700;2023-07-09T08:41:59;10.98;;;4.95;;
63012;SDS011;62113;45.624;11.700;2023-07-09T08:47:17;9.88;;;5.20;;
63012;SDS011;62113;45.624;11.700;2023-07-09T08:49:48;6.47;;;4.63;;
63012;SDS011;62113;45.624;11.700;2023-07-09T08:52:26;13.43;;;5.63;;
63012;SDS011;62113;45.624;11.700;2023-07-09T08:54:53;5.13;;;4.68;;
63012;SDS011;62113;45.624;11.700;2023-07-09T08:57:24;10.75;;;4.95;;
63012;SDS011;62113;45.624;11.700;2023-07-09T08:59:56;5.72;;;4.32;;
63012;SDS011;62113;45.624;11.700;2023-07-09T09:02:29;11.60;;;5.10;;
63012;SDS011;62113;45.624;11.700;2023-07-09T09:05:04;11.18;;;4.93;;
63012;SDS011;62113;45.624;11.700;2023-07-09T09:07:38;8.65;;;4.63;;
63012;SDS011;62113;45.624;11.700;2023-07-09T09:10:07;7.85;;;4.70;;
63012;SDS011;62113;45.624;11.700;2023-07-09T09:12:48;7.45;;;4.35;;
63012;SDS011;62113;45.624;11.700;2023-07-09T09:15:19;10.63;;;4.90;;
63012;SDS011;62113;45.624;11.700;2023-07-09T09:17:45;5.60;;;4.35;;
63012;SDS011;62113;45.624;11.700;2023-07-09T09:20:17;6.60;;;3.53;;
63012;SDS011;62113;45.624;11.700;2023-07-09T09:22:53;7.07;;;4.20;;
63012;SDS011;62113;45.624;11.700;2023-07-09T09:25:27;8.18;;;4.68;;
63012;SDS011;62113;45.624;11.700;2023-07-09T09:27:54;6.55;;;5.00;;
63012;SDS011;62113;45.624;11.700;2023-07-09T09:30:22;11.10;;;4.90;;
63012;SDS011;62113;45.624;11.700;2023-07-09T09:32:56;12.52;;;4.47;;
63012;SDS011;62113;45.624;11.700;2023-07-09T09:35:28;14.18;;;4.55;;
63012;SDS011;62113;45.624;11.700;2023-07-09T09:37:59;10.48;;;4.80;;
63012;SDS011;62113;45.624;11.700;2023-07-09T09:40:26;6.07;;;4.30;;
63012;SDS011;62113;45.624;11.700;2023-07-09T09:42:58;4.72;;;4.25;;
63012;SDS011;62113;45.624;11.700;2023-07-09T09:45:32;4.80;;;4.07;;
63012;SDS011;62113;45.624;11.700;2023-07-09T09:48:01;14.65;;;4.80;;
63012;SDS011;62113;45.624;11.700;2023-07-09T09:50:34;6.43;;;4.20;;
63012;SDS011;62113;45.624;11.700;2023-07-09T09:53:00;13.20;;;4.82;;
63012;SDS011;62113;45.624;11.700;2023-07-09T09:55:30;7.60;;;4.22;;
63012;SDS011;62113;45.624;11.700;2023-07-09T09:57:57;6.57;;;4.10;;
63012;SDS011;62113;45.624;11.700;2023-07-09T10:00:24;13.23;;;4.35;;
63012;SDS011;62113;45.624;11.700;2023-07-09T10:02:59;7.72;;;4.13;;
63012;SDS011;62113;45.624;11.700;2023-07-09T10:05:29;5.45;;;4.47;;
63012;SDS011;62113;45.624;11.700;2023-07-09T10:08:00;9.48;;;4.90;;
63012;SDS011;62113;45.624;11.700;2023-07-09T10:10:32;6.55;;;4.45;;
63012;SDS011;62113;45.624;11.700;2023-07-09T10:13:01;6.78;;;4.70;;
63012;SDS011;62113;45.624;11.700;2023-07-09T10:15:41;18.52;;;4.68;;
63012;SDS011;62113;45.624;11.700;2023-07-09T10:29:13;6.38;;;4.80;;
63012;SDS011;62113;45.624;11.700;2023-07-09T10:34:56;6.80;;;4.57;;
63012;SDS011;62113;45.624;11.700;2023-07-09T10:39:58;6.72;;;4.72;;
63012;SDS011;62113;45.624;11.700;2023-07-09T10:42:37;10.05;;;4.82;;
63012;SDS011;62113;45.624;11.700;2023-07-09T10:45:11;14.05;;;5.00;;
63012;SDS011;62113;45.624;11.700;2023-07-09T10:50:34;8.70;;;5.00;;
63012;SDS011;62113;45.624;11.700;2023-07-09T10:53:12;9.63;;;5.32;;
63012;SDS011;62113;45.624;11.700;2023-07-09T10:55:53;8.85;;;4.80;;
63012;SDS011;62113;45.624;11.700;2023-07-09T10:58:46;8.50;;;5.28;;
63012;SDS011;62113;45.624;11.700;2023-07-09T11:01:14;8.95;;;4.97;;
63012;SDS011;62113;45.624;11.700;2023-07-09T11:03:53;7.43;;;4.75;;
63012;SDS011;62113;45.624;11.700;2023-07-09T11:08:56;6.75;;;4.78;;
63012;SDS011;62113;45.624;11.700;2023-07-09T11:11:33;6.07;;;4.75;;
63012;SDS011;62113;45.624;11.700;2023-07-09T11:14:06;8.85;;;4.63;;
63012;SDS011;62113;45.624;11.700;2023-07-09T11:16:47;10.45;;;5.30;;
63012;SDS011;62113;45.624;11.700;2023-07-09T11:19:14;5.80;;;4.47;;
63012;SDS011;62113;45.624;11.700;2023-07-09T11:21:58;6.47;;;4.65;;
63012;SDS011;62113;45.624;11.700;2023-07-09T11:26:57;7.28;;;4.72;;
63012;SDS011;62113;45.624;11.700;2023-07-09T11:29:25;7.88;;;4.65;;
63012;SDS011;62113;45.624;11.700;2023-07-09T11:31:51;7.53;;;4.50;;
63012;SDS011;62113;45.624;11.700;2023-07-09T11:34:17;6.10;;;4.45;;
63012;SDS011;62113;45.624;11.700;2023-07-09T11:45:11;8.35;;;4.75;;
63012;SDS011;62113;45.624;11.700;2023-07-09T11:47:43;9.60;;;5.03;;
63012;SDS011;62113;45.624;11.700;2023-07-09T11:50:39;7.05;;;4.60;;
63012;SDS011;62113;45.624;11.700;2023-07-09T11:55:58;6.70;;;4.57;;
63012;SDS011;62113;45.624;11.700;2023-07-09T11:58:24;9.27;;;4.80;;
63012;SDS011;62113;45.624;11.700;2023-07-09T12:00:51;10.52;;;4.88;;
63012;SDS011;62113;45.624;11.700;2023-07-09T12:03:20;6.40;;;4.93;;
63012;SDS011;62113;45.624;11.700;2023-07-09T12:05:53;7.38;;;4.65;;
63012;SDS011;62113;45.624;11.700;2023-07-09T12:08:26;7.00;;;4.22;;
63012;SDS011;62113;45.624;11.700;2023-07-09T12:10:57;9.18;;;5.25;;
63012;SDS011;62113;45.624;11.700;2023-07-09T12:13:22;6.43;;;4.38;;
63012;SDS011;62113;45.624;11.700;2023-07-09T12:15:48;7.05;;;4.93;;
63012;SDS011;62113;45.624;11.700;2023-07-09T12:18:15;7.63;;;4.50;;
63012;SDS011;62113;45.624;11.700;2023-07-09T12:20:41;9.15;;;5.03;;
63012;SDS011;62113;45.624;11.700;2023-07-09T12:23:28;8.23;;;5.15;;
63012;SDS011;62113;45.624;11.700;2023-07-09T12:25:59;7.30;;;4.50;;
63012;SDS011;62113;45.624;11.700;2023-07-09T12:28:27;9.65;;;5.50;;
63012;SDS011;62113;45.624;11.700;2023-07-09T12:30:54;8.25;;;4.90;;
63012;SDS011;62113;45.624;11.700;2023-07-09T12:33:21;7.18;;;4.80;;
63012;SDS011;62113;45.624;11.700;2023-07-09T12:35:49;5.97;;;4.47;;
63012;SDS011;62113;45.624;11.700;2023-07-09T12:38:25;6.53;;;5.03;;
63012;SDS011;62113;45.624;11.700;2023-07-09T12:40:53;8.57;;;4.75;;
63012;SDS011;62113;45.624;11.700;2023-07-09T12:43:27;5.78;;;4.63;;
63012;SDS011;62113;45.624;11.700;2023-07-09T12:45:56;6.60;;;4.68;;
63012;SDS011;62113;45.624;11.700;2023-07-09T12:48:27;6.65;;;4.78;;
63012;SDS011;62113;45.624;11.700;2023-07-09T12:50:57;7.63;;;5.03;;
63012;SDS011;62113;45.624;11.700;2023-07-09T12:53:25;9.45;;;4.90;;
63012;SDS011;62113;45.624;11.700;2023-07-09T12:55:55;6.35;;;4.85;;
63012;SDS011;62113;45.624;11.700;2023-07-09T13:00:53;6.47;;;4.50;;
63012;SDS011;62113;45.624;11.700;2023-07-09T13:03:21;8.98;;;4.95;;
63012;SDS011;62113;45.624;11.700;2023-07-09T13:06:38;7.10;;;4.70;;
63012;SDS011;62113;45.624;11.700;2023-07-09T13:09:13;10.02;;;4.82;;
63012;SDS011;62113;45.624;11.700;2023-07-09T13:11:50;7.25;;;4.63;;
63012;SDS011;62113;45.624;11.700;2023-07-09T13:14:17;10.15;;;5.18;;
63012;SDS011;62113;45.624;11.700;2023-07-09T13:16:45;10.60;;;5.00;;
63012;SDS011;62113;45.624;11.700;2023-07-09T13:19:11;7.15;;;4.72;;
63012;SDS011;62113;45.624;11.700;2023-07-09T13:21:37;5.47;;;4.57;;
63012;SDS011;62113;45.624;11.700;2023-07-09T13:24:37;7.22;;;4.20;;
63012;SDS011;62113;45.624;11.700;2023-07-09T13:27:00;8.38;;;4.70;;
63012;SDS011;62113;45.624;11.700;2023-07-09T13:29:27;5.68;;;4.65;;
63012;SDS011;62113;45.624;11.700;2023-07-09T13:31:53;4.90;;;4.30;;
63012;SDS011;62113;45.624;11.700;2023-07-09T13:34:21;6.70;;;4.45;;
63012;SDS011;62113;45.624;11.700;2023-07-09T13:36:52;5.63;;;4.38;;
63012;SDS011;62113;45.624;11.700;2023-07-09T13:39:19;7.57;;;4.43;;
63012;SDS011;62113;45.624;11.700;2023-07-09T13:41:46;14.55;;;4.93;;
63012;SDS011;62113;45.624;11.700;2023-07-09T13:44:18;11.18;;;5.85;;
63012;SDS011;62113;45.624;11.700;2023-07-09T13:46:46;16.30;;;6.88;;
63012;SDS011;62113;45.624;11.700;2023-07-09T13:49:16;13.10;;;5.70;;
63012;SDS011;62113;45.624;11.700;2023-07-09T13:51:43;13.68;;;5.05;;
63012;SDS011;62113;45.624;11.700;2023-07-09T13:54:14;14.77;;;4.75;;
63012;SDS011;62113;45.624;11.700;2023-07-09T13:56:44;5.28;;;4.28;;
63012;SDS011;62113;45.624;11.700;2023-07-09T13:59:14;6.38;;;4.43;;
63012;SDS011;62113;45.624;11.700;2023-07-09T14:01:42;11.60;;;5.35;;
63012;SDS011;62113;45.624;11.700;2023-07-09T14:04:09;7.78;;;4.28;;
63012;SDS011;62113;45.624;11.700;2023-07-09T14:06:36;9.48;;;5.03;;
63012;SDS011;62113;45.624;11.700;2023-07-09T14:09:02;6.18;;;4.70;;
63012;SDS011;62113;45.624;11.700;2023-07-09T14:11:28;5.85;;;4.70;;
63012;SDS011;62113;45.624;11.700;2023-07-09T14:13:55;5.68;;;4.47;;
63012;SDS011;62113;45.624;11.700;2023-07-09T14:16:21;12.50;;;6.88;;
63012;SDS011;62113;45.624;11.700;2023-07-09T14:18:46;12.45;;;6.70;;
63012;SDS011;62113;45.624;11.700;2023-07-09T14:21:13;11.32;;;4.63;;
63012;SDS011;62113;45.624;11.700;2023-07-09T14:23:40;10.10;;;5.45;;
63012;SDS011;62113;45.624;11.700;2023-07-09T14:26:07;7.90;;;4.47;;
63012;SDS011;62113;45.624;11.700;2023-07-09T14:28:35;9.55;;;4.53;;
63012;SDS011;62113;45.624;11.700;2023-07-09T14:31:03;10.63;;;4.53;;
63012;SDS011;62113;45.624;11.700;2023-07-09T14:33:44;12.30;;;4.85;;
63012;SDS011;62113;45.624;11.700;2023-07-09T14:36:10;8.57;;;4.50;;
63012;SDS011;62113;45.624;11.700;2023-07-09T14:38:35;6.43;;;4.75;;
63012;SDS011;62113;45.624;11.700;2023-07-09T14:43:29;7.80;;;4.28;;
63012;SDS011;62113;45.624;11.700;2023-07-09T14:45:55;8.93;;;4.10;;
63012;SDS011;62113;45.624;11.700;2023-07-09T14:48:20;8.15;;;4.57;;
63012;SDS011;62113;45.624;11.700;2023-07-09T14:50:47;5.80;;;4.13;;
63012;SDS011;62113;45.624;11.700;2023-07-09T14:53:14;7.05;;;4.20;;
63012;SDS011;62113;45.624;11.700;2023-07-09T14:55:45;9.27;;;3.85;;
63012;SDS011;62113;45.624;11.700;2023-07-09T14:58:15;5.43;;;4.43;;
63012;SDS011;62113;45.624;11.700;2023-07-09T15:00:45;8.02;;;4.88;;
63012;SDS011;62113;45.624;11.700;2023-07-09T15:03:12;14.52;;;4.30;;
63012;SDS011;62113;45.624;11.700;2023-07-09T15:05:45;5.38;;;4.43;;
63012;SDS011;62113;45.624;11.700;2023-07-09T15:08:14;9.25;;;4.47;;
63012;SDS011;62113;45.624;11.700;2023-07-09T15:10:41;6.85;;;4.20;;
63012;SDS011;62113;45.624;11.700;2023-07-09T15:13:12;7.95;;;4.70;;
63012;SDS011;62113;45.624;11.700;2023-07-09T15:15:44;6.75;;;4.00;;
63012;SDS011;62113;45.624;11.700;2023-07-09T15:18:11;11.63;;;4.70;;
63012;SDS011;62113;45.624;11.700;2023-07-09T15:20:38;10.75;;;4.38;;
63012;SDS011;62113;45.624;11.700;2023-07-09T15:23:07;11.02;;;5.10;;
63012;SDS011;62113;45.624;11.700;2023-07-09T15:25:35;6.00;;;4.07;;
63012;SDS011;62113;45.624;11.700;2023-07-09T15:28:01;6.68;;;4.38;;
63012;SDS011;62113;45.624;11.700;2023-07-09T15:30:28;6.75;;;4.72;;
63012;SDS011;62113;45.624;11.700;2023-07-09T15:32:55;6.45;;;4.80;;
63012;SDS011;62113;45.624;11.700;2023-07-09T15:35:22;7.82;;;4.78;;
63012;SDS011;62113;45.624;11.700;2023-07-09T15:37:50;6.70;;;4.57;;
63012;SDS011;62113;45.624;11.700;2023-07-09T15:42:50;7.57;;;4.05;;
63012;SDS011;62113;45.624;11.700;2023-07-09T15:45:18;5.53;;;4.15;;
63012;SDS011;62113;45.624;11.700;2023-07-09T15:47:45;10.40;;;5.13;;
63012;SDS011;62113;45.624;11.700;2023-07-09T15:52:48;10.95;;;4.32;;